Terminal Aerodrome Forecast
Issued by NWS Brownsville, TX

Home | Current Version | Previous Version | Text Only | Print | Product List | Glossary On
Versions: 1 2 3 4 5 6 7 8 9 10 11 12 13 14 15 16 17 18 19 20
000
FTUS44 KBRO 270528
TAFHRL
TAF
KHRL 270528Z 2706/2806 04004KT P6SM SKC
     FM271300 11008KT P6SM SCT020 BKN030
     FM271600 13012G18KT P6SM SCT030
     FM280300 14012G18KT P6SM BKN015=

USA.gov is the U.S. government's official web portal to all federal, state and local government web resources and services.